createdAt,value
2023-01-21T00:00:59.808Z,36.70
2023-01-21T00:03:26.587Z,44.25
2023-01-21T00:05:53.427Z,38.15
2023-01-21T00:08:20.196Z,32.63
2023-01-21T00:10:46.927Z,34.17
2023-01-21T00:13:13.611Z,37.72
2023-01-21T00:15:40.378Z,35.30
2023-01-21T00:25:43.190Z,34.92
2023-01-21T00:28:09.901Z,34.88
2023-01-21T00:30:37.060Z,31.00
2023-01-21T00:33:04.671Z,30.55
2023-01-21T00:35:31.325Z,29.92
2023-01-21T00:37:58.064Z,27.23
2023-01-21T00:40:25.281Z,29.30
2023-01-21T00:42:51.917Z,30.90
2023-01-21T00:45:18.706Z,29.08
2023-01-21T00:47:45.404Z,31.02
2023-01-21T00:50:12.044Z,28.35
2023-01-21T00:52:38.961Z,29.70
2023-01-21T00:55:08.402Z,28.60
2023-01-21T00:57:35.216Z,27.80
2023-01-21T01:00:02.264Z,27.48
2023-01-21T01:02:29.050Z,27.20
2023-01-21T01:04:55.720Z,31.17
2023-01-21T01:07:22.306Z,30.55
2023-01-21T01:09:48.961Z,34.50
2023-01-21T01:12:15.627Z,39.13
2023-01-21T01:14:42.258Z,31.13
2023-01-21T01:17:09.219Z,48.63
2023-01-21T01:19:35.884Z,45.80
2023-01-21T01:22:02.595Z,94.00
2023-01-21T01:24:29.337Z,241.05
2023-01-21T01:26:56.003Z,124.97
2023-01-21T01:29:22.852Z,120.30
2023-01-21T01:31:49.578Z,62.78
2023-01-21T01:34:16.639Z,172.68
2023-01-21T01:36:43.491Z,92.50
2023-01-21T01:39:10.155Z,70.13
2023-01-21T01:41:36.969Z,99.75
2023-01-21T01:44:05.116Z,94.10
2023-01-21T01:46:36.781Z,69.22
2023-01-21T01:49:19.191Z,66.43
2023-01-21T01:51:58.141Z,89.15
2023-01-21T01:54:39.712Z,52.33
2023-01-21T01:57:10.474Z,68.82
2023-01-21T01:59:37.247Z,53.65
2023-01-21T02:02:07.722Z,54.40
2023-01-21T02:04:44.353Z,68.78
2023-01-21T02:07:11.697Z,48.33
2023-01-21T02:09:38.387Z,43.42
2023-01-21T02:12:06.522Z,37.85
2023-01-21T02:14:42.755Z,36.70
2023-01-21T02:17:40.079Z,33.22
2023-01-21T02:20:37.134Z,38.38
2023-01-21T02:23:41.349Z,30.20
2023-01-21T02:26:07.948Z,35.20
2023-01-21T02:28:40.678Z,28.80
2023-01-21T02:31:40.657Z,32.15
2023-01-21T02:34:29.486Z,32.25
2023-01-21T02:37:21.419Z,29.92
2023-01-21T02:40:22.641Z,32.28
2023-01-21T02:43:08.616Z,31.10
2023-01-21T02:45:47.239Z,32.30
2023-01-21T02:48:35.378Z,36.78
2023-01-21T02:51:02.609Z,31.38
2023-01-21T02:53:31.738Z,32.83
2023-01-21T02:56:20.430Z,30.77
2023-01-21T02:58:56.454Z,37.58
2023-01-21T03:01:49.133Z,35.90
2023-01-21T03:04:52.287Z,36.15
2023-01-21T03:07:41.655Z,32.28
2023-01-21T03:10:20.834Z,33.28
2023-01-21T03:15:48.890Z,30.20
2023-01-21T03:18:22.295Z,29.27
2023-01-21T03:20:58.447Z,29.77
2023-01-21T03:23:33.059Z,30.80
2023-01-21T03:26:00.833Z,31.67
2023-01-21T03:28:33.603Z,29.83
2023-01-21T03:31:06.002Z,33.72
2023-01-21T03:33:37.743Z,37.63
2023-01-21T03:36:13.799Z,28.15
2023-01-21T03:38:49.655Z,32.42
2023-01-21T03:41:34.056Z,30.40
2023-01-21T03:44:01.073Z,31.25
2023-01-21T03:46:27.695Z,28.45
2023-01-21T03:49:21.757Z,27.73
2023-01-21T03:51:55.315Z,29.27
2023-01-21T03:54:22.643Z,30.67
2023-01-21T03:56:49.307Z,27.83
2023-01-21T03:59:16.151Z,28.77
2023-01-21T04:01:42.903Z,27.17
2023-01-21T04:04:09.979Z,28.60
2023-01-21T04:06:39.711Z,28.58
2023-01-21T04:09:07.634Z,27.60
2023-01-21T04:11:34.591Z,29.85
2023-01-21T04:14:01.524Z,31.60
2023-01-21T04:16:28.365Z,33.22
2023-01-21T04:18:55.465Z,30.75
2023-01-21T04:21:22.132Z,27.33
2023-01-21T04:23:48.876Z,29.30
2023-01-21T04:26:16.634Z,29.42
2023-01-21T04:28:43.575Z,30.60
2023-01-21T04:31:10.476Z,28.38
2023-01-21T04:33:37.139Z,30.92
2023-01-21T04:36:04.014Z,33.63
2023-01-21T04:38:30.723Z,29.23
2023-01-21T04:40:57.434Z,28.70
2023-01-21T04:43:24.138Z,27.45
2023-01-21T04:45:50.912Z,29.38
2023-01-21T04:48:17.810Z,31.90
2023-01-21T04:50:46.090Z,31.95
2023-01-21T04:53:12.814Z,32.47
2023-01-21T04:55:39.522Z,31.63
2023-01-21T04:58:06.219Z,26.67
2023-01-21T05:00:32.927Z,29.13
2023-01-21T05:02:59.619Z,32.60
2023-01-21T05:05:26.496Z,28.02
2023-01-21T05:07:54.190Z,33.17
2023-01-21T05:10:21.097Z,29.27
2023-01-21T05:12:48.727Z,28.50
2023-01-21T05:15:15.507Z,29.55
2023-01-21T05:17:42.179Z,30.17
2023-01-21T05:20:09.994Z,32.20
2023-01-21T05:22:36.834Z,31.23
2023-01-21T05:25:04.123Z,32.50
2023-01-21T05:27:30.886Z,31.33
2023-01-21T05:29:57.607Z,31.45
2023-01-21T05:32:24.458Z,33.67
2023-01-21T05:34:51.185Z,30.15
2023-01-21T05:37:17.951Z,29.63
2023-01-21T05:39:44.784Z,29.73
2023-01-21T05:42:11.506Z,31.80
2023-01-21T05:44:38.337Z,32.63
2023-01-21T05:47:05.065Z,34.53
2023-01-21T05:49:32.293Z,38.33
2023-01-21T05:51:59.012Z,36.10
2023-01-21T05:54:25.751Z,33.42
2023-01-21T05:56:52.650Z,32.80
2023-01-21T05:59:19.310Z,36.55
2023-01-21T06:01:45.949Z,38.58
2023-01-21T06:04:12.723Z,37.85
2023-01-21T06:06:40.700Z,33.63
2023-01-21T06:09:07.480Z,37.03
2023-01-21T06:11:34.157Z,37.95
2023-01-21T06:14:00.889Z,39.40
2023-01-21T06:16:27.612Z,36.58
2023-01-21T06:18:54.263Z,37.20
2023-01-21T06:21:20.993Z,40.47
2023-01-21T06:23:47.715Z,37.50
2023-01-21T06:26:14.380Z,36.47
2023-01-21T06:28:41.057Z,34.97
2023-01-21T06:31:07.864Z,36.92
2023-01-21T06:33:34.581Z,35.83
2023-01-21T06:36:01.346Z,36.10
2023-01-21T06:38:28.192Z,35.53
2023-01-21T06:40:54.902Z,37.97
2023-01-21T06:43:21.583Z,34.78
2023-01-21T06:45:48.457Z,37.58
2023-01-21T06:48:15.059Z,34.08
2023-01-21T06:50:41.878Z,32.65
2023-01-21T06:53:08.533Z,31.67
2023-01-21T06:55:35.145Z,33.42
2023-01-21T06:58:01.802Z,29.38
2023-01-21T07:00:28.475Z,32.53
2023-01-21T07:02:59.525Z,31.05
2023-01-21T07:05:27.738Z,33.30
2023-01-21T07:07:55.880Z,34.78
2023-01-21T07:10:24.053Z,32.78
2023-01-21T07:12:50.959Z,34.13
2023-01-21T07:15:18.160Z,33.15
2023-01-21T07:17:45.064Z,34.47
2023-01-21T07:20:14.479Z,34.08
2023-01-21T07:22:41.112Z,37.88
2023-01-21T07:25:08.753Z,37.72
2023-01-21T07:27:35.439Z,38.17
2023-01-21T07:30:02.190Z,37.38
2023-01-21T07:32:28.976Z,34.75
2023-01-21T07:34:55.662Z,35.85
2023-01-21T07:37:22.482Z,40.15
2023-01-21T07:39:49.113Z,38.22
2023-01-21T07:42:15.775Z,38.70
2023-01-21T07:44:42.389Z,31.27
2023-01-21T07:47:10.542Z,37.58
2023-01-21T07:49:37.691Z,35.70
2023-01-21T07:52:04.560Z,38.63
2023-01-21T07:54:31.222Z,38.67
2023-01-21T07:56:58.510Z,37.17
2023-01-21T07:59:25.249Z,35.90
2023-01-21T08:01:51.972Z,39.95
2023-01-21T08:04:18.774Z,41.80
2023-01-21T08:06:45.433Z,43.58
2023-01-21T08:09:12.171Z,44.67
2023-01-21T08:11:38.928Z,42.15
2023-01-21T08:14:05.859Z,39.25
2023-01-21T08:16:32.588Z,38.35
2023-01-21T08:18:59.300Z,36.88
2023-01-21T08:21:26.093Z,33.83
2023-01-21T08:23:52.778Z,37.42
2023-01-21T08:26:19.394Z,38.80
2023-01-21T08:28:46.131Z,40.22
2023-01-21T08:31:13.852Z,38.92
2023-01-21T08:33:40.709Z,43.28
2023-01-21T08:36:08.567Z,37.15
2023-01-21T08:38:35.822Z,39.80
2023-01-21T08:41:02.559Z,41.90
2023-01-21T08:43:29.320Z,42.35
2023-01-21T08:45:58.659Z,42.00
2023-01-21T08:48:25.429Z,40.88
2023-01-21T08:50:52.102Z,41.15
2023-01-21T08:53:18.915Z,39.58
2023-01-21T08:55:45.575Z,42.20
2023-01-21T08:58:12.294Z,39.25
2023-01-21T09:00:39.600Z,42.42
2023-01-21T09:03:06.352Z,39.53
2023-01-21T09:05:33.118Z,38.35
2023-01-21T09:07:59.873Z,36.03
2023-01-21T09:11:04.960Z,38.65
2023-01-21T09:13:34.961Z,38.65
2023-01-21T09:16:02.196Z,34.75
2023-01-21T09:18:28.943Z,34.03
2023-01-21T09:21:00.704Z,37.72
2023-01-21T09:23:28.231Z,38.88
2023-01-21T09:25:56.401Z,36.42
2023-01-21T09:28:23.852Z,35.80
2023-01-21T09:30:57.043Z,38.15
2023-01-21T09:33:23.878Z,37.72
2023-01-21T09:35:57.900Z,39.30
2023-01-21T09:38:25.892Z,33.63
2023-01-21T09:40:53.563Z,35.85
2023-01-21T09:43:38.254Z,38.53
2023-01-21T09:46:10.867Z,34.35
2023-01-21T09:48:44.050Z,31.35
2023-01-21T09:51:19.776Z,31.80
2023-01-21T09:53:55.171Z,32.63
2023-01-21T09:56:57.658Z,36.33
2023-01-21T09:59:37.722Z,31.40
2023-01-21T10:02:16.633Z,32.85
2023-01-21T10:05:06.739Z,31.02
2023-01-21T10:07:45.018Z,28.50
2023-01-21T10:10:28.070Z,32.38
2023-01-21T10:13:14.254Z,28.77
2023-01-21T10:15:53.548Z,31.85
2023-01-21T10:21:19.024Z,29.52
2023-01-21T10:23:52.277Z,30.60
2023-01-21T10:26:18.897Z,30.42
2023-01-21T10:28:52.062Z,33.30
2023-01-21T10:31:24.131Z,30.52
2023-01-21T10:33:50.995Z,31.38
2023-01-21T10:36:45.594Z,30.45
2023-01-21T10:39:29.146Z,32.80
2023-01-21T10:42:34.107Z,30.67
2023-01-21T10:45:21.920Z,28.10
2023-01-21T10:48:00.775Z,28.50
2023-01-21T10:50:54.619Z,26.35
2023-01-21T10:53:38.650Z,29.15
2023-01-21T10:56:14.553Z,24.35
2023-01-21T10:58:54.028Z,26.73
2023-01-21T11:01:37.897Z,25.02
2023-01-21T11:04:16.658Z,26.10
2023-01-21T11:06:45.945Z,27.50
2023-01-21T11:09:14.821Z,29.58
2023-01-21T11:11:42.948Z,35.60
2023-01-21T11:14:10.575Z,31.80
2023-01-21T11:16:45.818Z,34.25
2023-01-21T11:19:18.391Z,24.38
2023-01-21T11:22:04.284Z,22.63
2023-01-21T11:24:52.804Z,23.33
2023-01-21T11:27:32.934Z,24.40
2023-01-21T11:29:59.762Z,23.35
2023-01-21T11:32:28.976Z,21.60
2023-01-21T11:34:58.700Z,26.77
2023-01-21T11:37:27.506Z,21.85
2023-01-21T11:40:00.792Z,19.20
2023-01-21T11:42:27.709Z,20.65
2023-01-21T11:45:01.499Z,20.35
2023-01-21T11:47:54.386Z,20.17
2023-01-21T11:50:37.748Z,20.55
2023-01-21T11:53:07.891Z,19.25
2023-01-21T11:56:03.082Z,20.52
2023-01-21T11:58:33.686Z,21.05
2023-01-21T12:01:25.973Z,19.13
2023-01-21T12:04:02.572Z,18.10
2023-01-21T12:06:33.872Z,16.60
2023-01-21T12:09:07.925Z,14.32
2023-01-21T12:11:34.848Z,16.30
2023-01-21T12:14:43.137Z,18.15
2023-01-21T12:17:31.349Z,17.07
2023-01-21T12:20:18.266Z,15.43
2023-01-21T12:23:05.141Z,14.73
2023-01-21T12:25:44.569Z,19.02
2023-01-21T12:28:29.180Z,18.40
2023-01-21T12:31:01.937Z,14.95
2023-01-21T12:33:31.418Z,18.17
2023-01-21T12:36:20.479Z,18.13
2023-01-21T12:38:55.382Z,16.15
2023-01-21T12:41:28.667Z,14.73
2023-01-21T12:44:14.768Z,15.10
2023-01-21T12:46:46.331Z,13.75
2023-01-21T12:49:45.398Z,14.30
2023-01-21T12:52:21.642Z,15.93
2023-01-21T12:55:23.247Z,16.20
2023-01-21T12:58:08.284Z,12.88
2023-01-21T13:00:39.782Z,14.25
2023-01-21T13:03:15.478Z,15.45
2023-01-21T13:05:57.335Z,17.27
2023-01-21T13:08:50.652Z,15.27
2023-01-21T13:11:28.315Z,14.95
2023-01-21T13:14:07.111Z,14.27
2023-01-21T13:16:41.927Z,17.02
2023-01-21T13:19:12.824Z,15.13
2023-01-21T13:21:43.998Z,13.45
2023-01-21T13:24:31.961Z,17.13
2023-01-21T13:28:00.274Z,15.15
2023-01-21T13:30:29.853Z,17.27
2023-01-21T13:33:02.573Z,15.95
2023-01-21T13:35:46.631Z,16.23
2023-01-21T13:38:41.387Z,15.45
2023-01-21T13:41:41.905Z,15.15
2023-01-21T13:44:26.511Z,14.05
2023-01-21T13:47:07.986Z,15.50
2023-01-21T13:49:48.433Z,15.80
2023-01-21T13:52:33.782Z,15.57
2023-01-21T13:55:15.632Z,15.88
2023-01-21T13:57:55.009Z,15.07
2023-01-21T14:03:36.158Z,15.88
2023-01-21T14:06:30.255Z,15.95
2023-01-21T14:09:38.448Z,13.23
2023-01-21T14:12:09.082Z,13.27
2023-01-21T14:14:57.563Z,14.05
2023-01-21T14:17:53.737Z,12.77
2023-01-21T14:20:35.303Z,15.00
2023-01-21T14:23:40.361Z,13.35
2023-01-21T14:26:33.257Z,18.38
2023-01-21T14:29:06.727Z,15.05
2023-01-21T14:31:40.262Z,16.60
2023-01-21T14:34:10.005Z,14.30
2023-01-21T14:36:53.034Z,14.70
2023-01-21T14:39:19.613Z,15.70
2023-01-21T14:42:04.792Z,17.67
2023-01-21T14:44:57.383Z,16.35
2023-01-21T14:47:30.256Z,14.52
2023-01-21T14:49:59.041Z,15.35
2023-01-21T14:52:41.860Z,15.18
2023-01-21T14:55:28.511Z,16.30
2023-01-21T14:57:57.487Z,15.32
2023-01-21T15:00:29.581Z,18.75
2023-01-21T15:03:02.329Z,14.52
2023-01-21T15:05:41.138Z,15.70
2023-01-21T15:08:17.287Z,16.67
2023-01-21T15:10:52.438Z,14.30
2023-01-21T15:13:28.161Z,15.43
2023-01-21T15:16:19.371Z,15.40
2023-01-21T15:19:08.022Z,14.82
2023-01-21T15:21:43.316Z,17.35
2023-01-21T15:24:23.066Z,18.90
2023-01-21T15:27:28.061Z,19.77
2023-01-21T15:29:54.788Z,18.88
2023-01-21T15:32:44.673Z,18.42
2023-01-21T15:35:25.967Z,17.63
2023-01-21T15:38:09.546Z,16.65
2023-01-21T15:40:51.221Z,14.15
2023-01-21T15:43:33.220Z,17.23
2023-01-21T15:46:26.259Z,14.27
2023-01-21T15:49:27.506Z,14.82
2023-01-21T15:52:20.651Z,14.60
2023-01-21T15:55:00.507Z,16.02
2023-01-21T15:57:48.835Z,82.72
2023-01-21T16:00:34.989Z,64.95
2023-01-21T16:03:23.096Z,33.42
2023-01-21T16:06:04.513Z,21.55
2023-01-21T16:08:49.732Z,19.63
2023-01-21T16:11:22.584Z,17.30
2023-01-21T16:13:57.742Z,15.95
2023-01-21T16:17:02.053Z,18.50
2023-01-21T16:19:35.265Z,16.90
2023-01-21T16:22:07.523Z,20.08
2023-01-21T16:24:40.231Z,16.30
2023-01-21T16:27:27.363Z,18.85
2023-01-21T16:29:58.528Z,17.27
2023-01-21T16:32:26.990Z,16.92
2023-01-21T16:34:53.818Z,18.07
2023-01-21T16:37:24.277Z,15.98
2023-01-21T16:39:54.879Z,21.48
2023-01-21T16:42:44.293Z,19.67
2023-01-21T16:45:19.416Z,21.20
2023-01-21T16:47:53.957Z,18.40
2023-01-21T16:50:24.758Z,18.40
2023-01-21T16:52:53.688Z,18.90
2023-01-21T16:55:26.047Z,20.23
2023-01-21T16:57:54.974Z,17.02
2023-01-21T17:00:32.490Z,22.35
2023-01-21T17:03:00.459Z,19.55
2023-01-21T17:05:33.312Z,21.23
2023-01-21T17:08:03.523Z,20.55
2023-01-21T17:10:35.598Z,22.02
2023-01-21T17:13:05.835Z,23.20
2023-01-21T17:15:41.648Z,25.13
2023-01-21T17:18:19.839Z,19.88
2023-01-21T17:20:51.422Z,21.15
2023-01-21T17:23:22.799Z,20.38
2023-01-21T17:25:55.976Z,26.58
2023-01-21T17:28:29.014Z,19.88
2023-01-21T17:31:29.445Z,21.77
2023-01-21T17:34:15.951Z,21.00
2023-01-21T17:36:44.763Z,24.23
2023-01-21T17:39:12.603Z,25.27
2023-01-21T17:41:41.308Z,21.33
2023-01-21T17:44:18.583Z,19.15
2023-01-21T17:46:52.282Z,26.83
2023-01-21T17:49:22.060Z,26.48
2023-01-21T17:51:49.986Z,24.08
2023-01-21T17:54:25.968Z,21.08
2023-01-21T17:57:00.200Z,23.60
2023-01-21T17:59:34.245Z,24.73
2023-01-21T18:02:02.936Z,21.17
2023-01-21T18:04:29.851Z,22.15
2023-01-21T18:06:57.704Z,23.30
2023-01-21T18:09:25.815Z,22.27
2023-01-21T18:11:54.750Z,22.30
2023-01-21T18:14:24.372Z,22.92
2023-01-21T18:16:53.588Z,20.98
2023-01-21T18:19:28.434Z,22.65
2023-01-21T18:21:56.002Z,26.67
2023-01-21T18:24:22.953Z,22.05
2023-01-21T18:26:49.947Z,24.85
2023-01-21T18:29:18.275Z,19.95
2023-01-21T18:31:46.015Z,20.35
2023-01-21T18:34:12.671Z,21.80
2023-01-21T18:36:40.741Z,19.05
2023-01-21T18:39:16.474Z,21.38
2023-01-21T18:41:43.463Z,19.60
2023-01-21T18:44:10.415Z,18.08
2023-01-21T18:46:42.140Z,19.58
2023-01-21T18:49:17.088Z,19.08
2023-01-21T18:51:44.457Z,19.95
2023-01-21T18:54:13.044Z,21.83
2023-01-21T18:56:40.370Z,21.57
2023-01-21T18:59:13.557Z,21.40
2023-01-21T19:01:41.071Z,19.85
2023-01-21T19:04:09.723Z,20.42
2023-01-21T19:06:36.843Z,19.98
2023-01-21T19:09:03.922Z,23.77
2023-01-21T19:11:30.546Z,22.40
2023-01-21T19:13:57.103Z,18.77
2023-01-21T19:16:24.031Z,22.63
2023-01-21T19:18:50.695Z,21.08
2023-01-21T19:21:17.419Z,17.27
2023-01-21T19:23:44.097Z,18.10
2023-01-21T19:26:13.824Z,18.65
2023-01-21T19:28:40.449Z,17.55
2023-01-21T19:31:07.613Z,22.10
2023-01-21T19:33:34.379Z,19.50
2023-01-21T19:36:11.546Z,24.25
2023-01-21T19:38:38.378Z,22.95
2023-01-21T19:41:07.753Z,20.08
2023-01-21T19:46:01.014Z,24.77
2023-01-21T19:48:29.380Z,21.85
2023-01-21T19:50:56.023Z,22.60
2023-01-21T19:53:23.707Z,19.55
2023-01-21T19:55:51.040Z,22.35
2023-01-21T19:58:23.915Z,20.35
2023-01-21T20:00:52.717Z,21.15
2023-01-21T20:03:22.149Z,19.83
2023-01-21T20:08:20.679Z,22.23
2023-01-21T20:10:47.542Z,18.30
2023-01-21T20:13:15.588Z,18.98
2023-01-21T20:15:44.860Z,20.00
2023-01-21T20:18:20.328Z,17.55
2023-01-21T20:20:47.034Z,16.05
2023-01-21T20:23:16.221Z,16.05
2023-01-21T20:25:45.467Z,17.73
2023-01-21T20:28:36.236Z,15.65
2023-01-21T20:31:06.545Z,18.75
2023-01-21T20:33:34.363Z,16.00
2023-01-21T20:36:05.692Z,16.27
2023-01-21T20:38:34.955Z,13.68
2023-01-21T20:41:02.949Z,16.10
2023-01-21T20:43:30.051Z,18.60
2023-01-21T20:46:01.768Z,17.13
2023-01-21T20:48:35.341Z,16.73
2023-01-21T20:51:02.614Z,15.75
2023-01-21T20:53:30.861Z,16.38
2023-01-21T20:56:00.466Z,16.13
2023-01-21T20:58:28.183Z,16.25
2023-01-21T21:00:54.918Z,14.85
2023-01-21T21:03:23.699Z,14.00
2023-01-21T21:05:50.356Z,12.18
2023-01-21T21:08:20.140Z,13.68
2023-01-21T21:10:47.915Z,13.50
2023-01-21T21:13:14.570Z,12.95
2023-01-21T21:15:42.084Z,10.10
2023-01-21T21:18:12.988Z,11.68
2023-01-21T21:20:40.186Z,13.77
2023-01-21T21:23:07.969Z,10.48
2023-01-21T21:25:40.905Z,12.18
2023-01-21T21:28:07.712Z,11.20
2023-01-21T21:30:34.677Z,12.00
2023-01-21T21:33:02.183Z,10.18
2023-01-21T21:35:35.772Z,9.13
2023-01-21T21:38:08.290Z,9.55
2023-01-21T21:40:35.827Z,9.70
2023-01-21T21:43:20.989Z,7.63
2023-01-21T21:46:06.443Z,7.97
2023-01-21T21:48:39.225Z,8.60
2023-01-21T21:51:18.724Z,8.65
2023-01-21T21:53:46.931Z,7.95
2023-01-21T21:56:16.265Z,6.57
2023-01-21T22:01:24.560Z,8.38
2023-01-21T22:03:54.778Z,8.02
2023-01-21T22:06:22.456Z,15.75
2023-01-21T22:08:49.585Z,19.40
2023-01-21T22:11:20.791Z,7.60
2023-01-21T22:13:50.289Z,6.03
2023-01-21T22:16:28.046Z,6.60
2023-01-21T22:18:56.698Z,5.50
2023-01-21T22:21:29.476Z,3.93
2023-01-21T22:23:56.338Z,5.00
2023-01-21T22:26:25.097Z,5.05
2023-01-21T22:28:52.448Z,5.40
2023-01-21T22:31:22.343Z,5.32
2023-01-21T22:33:49.654Z,5.38
2023-01-21T22:36:18.789Z,4.50
2023-01-21T22:38:46.128Z,4.90
2023-01-21T22:41:14.731Z,4.55
2023-01-21T22:43:44.923Z,4.03
2023-01-21T22:46:14.359Z,5.22
2023-01-21T22:48:42.330Z,4.75
2023-01-21T22:51:12.870Z,4.03
2023-01-21T22:53:43.993Z,5.15
2023-01-21T22:56:12.784Z,3.63
2023-01-21T22:58:39.544Z,5.75
2023-01-21T23:01:06.515Z,5.22
2023-01-21T23:03:33.336Z,11.63
2023-01-21T23:06:08.261Z,6.03
2023-01-21T23:08:37.680Z,7.53
2023-01-21T23:13:34.196Z,3.33
2023-01-21T23:16:01.896Z,3.65
2023-01-21T23:18:29.337Z,5.63
2023-01-21T23:20:56.792Z,5.00
2023-01-21T23:23:24.804Z,3.90
2023-01-21T23:25:51.736Z,6.15
2023-01-21T23:28:18.384Z,5.28
2023-01-21T23:30:45.131Z,4.55
2023-01-21T23:33:12.199Z,4.15
2023-01-21T23:35:38.914Z,5.55
2023-01-21T23:38:05.517Z,4.88
2023-01-21T23:40:32.130Z,5.35
2023-01-21T23:42:58.781Z,3.80
2023-01-21T23:45:25.502Z,3.35
2023-01-21T23:47:52.112Z,4.80
2023-01-21T23:50:18.993Z,4.10
2023-01-21T23:52:45.753Z,4.03
2023-01-21T23:55:12.853Z,4.32
2023-01-21T23:57:39.461Z,3.05
